createdAt,value
2019-01-24T00:01:20.515Z,94.40
2019-01-24T00:03:48.225Z,94.30
2019-01-24T00:06:15.917Z,94.30
2019-01-24T00:08:43.621Z,94.40
2019-01-24T00:11:11.314Z,94.50
2019-01-24T00:13:39.025Z,94.70
2019-01-24T00:16:06.814Z,94.80
2019-01-24T00:18:34.561Z,94.90
2019-01-24T00:21:02.273Z,95.30
2019-01-24T00:23:29.975Z,95.40
2019-01-24T00:25:57.681Z,95.60
2019-01-24T00:28:25.387Z,95.60
2019-01-24T00:30:53.077Z,95.40
2019-01-24T00:33:20.800Z,95.60
2019-01-24T00:35:48.501Z,95.70
2019-01-24T00:38:16.227Z,95.70
2019-01-24T00:40:43.933Z,95.30
2019-01-24T00:43:11.649Z,95.30
2019-01-24T00:45:39.353Z,95.10
2019-01-24T00:48:07.040Z,95.00
2019-01-24T00:50:34.753Z,94.90
2019-01-24T00:53:02.453Z,94.80
2019-01-24T00:55:30.173Z,94.80
2019-01-24T00:57:57.869Z,94.80
2019-01-24T01:00:25.611Z,95.00
2019-01-24T01:02:53.309Z,95.00
2019-01-24T01:05:21.001Z,95.20
2019-01-24T01:07:48.714Z,95.20
2019-01-24T01:10:16.725Z,95.20
2019-01-24T01:12:44.452Z,95.10
2019-01-24T01:15:13.989Z,95.00
2019-01-24T01:17:41.789Z,94.90
2019-01-24T01:20:11.885Z,94.80
2019-01-24T01:22:39.569Z,94.70
2019-01-24T01:25:08.705Z,94.80
2019-01-24T01:27:36.425Z,95.00
2019-01-24T01:30:05.833Z,95.10
2019-01-24T01:32:33.545Z,95.20
2019-01-24T01:35:01.253Z,95.40
2019-01-24T01:37:28.946Z,95.10
2019-01-24T01:39:56.661Z,95.20
2019-01-24T01:42:24.358Z,95.10
2019-01-24T01:44:52.053Z,95.20
2019-01-24T01:47:19.803Z,95.30
2019-01-24T01:49:47.497Z,95.40
2019-01-24T01:52:15.209Z,95.60
2019-01-24T01:54:42.929Z,95.60
2019-01-24T01:57:10.625Z,95.60
2019-01-24T01:59:38.353Z,95.50
2019-01-24T02:02:06.045Z,95.60
2019-01-24T02:04:33.765Z,95.80
2019-01-24T02:07:01.454Z,95.80
2019-01-24T02:09:29.175Z,95.80
2019-01-24T02:11:56.861Z,95.90
2019-01-24T02:14:24.557Z,96.10
2019-01-24T02:16:52.272Z,96.20
2019-01-24T02:19:20.070Z,96.30
2019-01-24T02:21:47.785Z,96.40
2019-01-24T02:24:15.501Z,96.10
2019-01-24T02:26:43.121Z,96.30
2019-01-24T02:29:10.810Z,96.40
2019-01-24T02:31:38.522Z,96.40
2019-01-24T02:34:06.233Z,96.40
2019-01-24T02:36:33.929Z,96.40
2019-01-24T02:39:01.649Z,96.60
2019-01-24T02:41:29.857Z,96.80
2019-01-24T02:43:57.545Z,97.10
2019-01-24T02:46:25.253Z,97.20
2019-01-24T02:48:52.945Z,97.20
2019-01-24T02:51:20.670Z,97.10
2019-01-24T02:53:48.367Z,97.20
2019-01-24T02:56:16.113Z,97.30
2019-01-24T02:58:43.805Z,97.20
2019-01-24T03:01:11.501Z,97.40
2019-01-24T03:03:39.221Z,97.40
2019-01-24T03:06:06.913Z,97.30
2019-01-24T03:08:34.646Z,97.70
2019-01-24T03:11:02.330Z,97.20
2019-01-24T03:13:30.041Z,97.20
2019-01-24T03:15:57.741Z,97.30
2019-01-24T03:18:25.433Z,97.10
2019-01-24T03:20:53.195Z,97.00
2019-01-24T03:23:20.885Z,96.70
2019-01-24T03:25:48.625Z,96.70
2019-01-24T03:28:16.329Z,96.70
2019-01-24T03:30:44.044Z,96.70
2019-01-24T03:33:11.742Z,96.80
2019-01-24T03:35:39.428Z,96.70
2019-01-24T03:38:07.153Z,96.60
2019-01-24T03:40:34.852Z,96.60
2019-01-24T03:43:02.561Z,96.60
2019-01-24T03:45:30.255Z,96.50
2019-01-24T03:47:57.965Z,96.50
2019-01-24T03:50:25.669Z,96.50
2019-01-24T03:52:53.380Z,96.50
2019-01-24T03:55:21.595Z,96.40
2019-01-24T03:57:49.333Z,96.20
2019-01-24T04:00:19.016Z,96.00
2019-01-24T04:02:46.693Z,96.00
2019-01-24T04:05:16.211Z,95.80
2019-01-24T04:07:43.901Z,95.90
2019-01-24T04:10:13.635Z,95.90
2019-01-24T04:12:41.354Z,96.00
2019-01-24T04:15:10.485Z,95.80
2019-01-24T04:17:38.205Z,96.20
2019-01-24T04:20:06.232Z,96.20
2019-01-24T04:22:33.981Z,96.30
2019-01-24T04:25:01.673Z,96.40
2019-01-24T04:27:29.390Z,96.60
2019-01-24T04:29:57.093Z,96.50
2019-01-24T04:32:24.793Z,96.40
2019-01-24T04:34:52.551Z,96.50
2019-01-24T04:37:20.257Z,96.50
2019-01-24T04:39:47.970Z,96.40
2019-01-24T04:42:15.660Z,96.30
2019-01-24T04:44:43.360Z,96.30
2019-01-24T04:47:11.080Z,96.30
2019-01-24T04:49:38.777Z,96.20
2019-01-24T04:52:06.505Z,96.40
2019-01-24T04:54:34.181Z,96.50
2019-01-24T04:57:01.825Z,96.50
2019-01-24T04:59:29.510Z,96.60
2019-01-24T05:01:57.211Z,96.60
2019-01-24T05:04:24.959Z,96.70
2019-01-24T05:06:52.645Z,96.60
2019-01-24T05:09:20.370Z,96.40
2019-01-24T05:11:48.061Z,96.30
2019-01-24T05:14:15.776Z,96.30
2019-01-24T05:16:43.457Z,96.00
2019-01-24T05:19:11.143Z,95.90
2019-01-24T05:21:38.938Z,95.80
2019-01-24T05:24:06.637Z,95.70
2019-01-24T05:26:34.349Z,95.40
2019-01-24T05:29:02.046Z,95.20
2019-01-24T05:31:29.757Z,95.20
2019-01-24T05:33:57.477Z,94.80
2019-01-24T05:36:25.197Z,94.70
2019-01-24T05:38:52.911Z,94.70
2019-01-24T05:41:20.596Z,94.60
2019-01-24T05:43:48.317Z,94.30
2019-01-24T05:46:16.033Z,94.30
2019-01-24T05:48:44.017Z,94.60
2019-01-24T05:51:11.707Z,94.60
2019-01-24T05:53:39.409Z,94.10
2019-01-24T05:56:07.029Z,93.90
2019-01-24T05:58:34.729Z,93.50
2019-01-24T06:01:04.158Z,94.10
2019-01-24T06:03:31.849Z,94.60
2019-01-24T06:05:59.569Z,94.40
2019-01-24T06:08:27.325Z,94.50
2019-01-24T06:10:55.034Z,94.60
2019-01-24T06:13:22.738Z,94.80
2019-01-24T06:15:50.425Z,94.70
2019-01-24T06:18:18.156Z,94.70
2019-01-24T06:20:45.895Z,94.90
2019-01-24T06:23:13.611Z,94.90
2019-01-24T06:25:41.309Z,94.90
2019-01-24T06:28:09.008Z,94.50
2019-01-24T06:30:36.777Z,94.40
2019-01-24T06:33:04.481Z,94.00
2019-01-24T06:35:32.205Z,93.90
2019-01-24T06:37:59.906Z,93.70
2019-01-24T06:40:27.619Z,93.80
2019-01-24T06:42:55.357Z,93.40
2019-01-24T06:45:23.066Z,93.60
2019-01-24T06:47:50.761Z,93.50
2019-01-24T06:50:18.925Z,93.60
2019-01-24T06:52:46.664Z,93.60
2019-01-24T06:55:20.148Z,93.30
2019-01-24T06:57:47.877Z,93.30
2019-01-24T07:00:16.331Z,93.20
2019-01-24T07:02:44.067Z,93.00
2019-01-24T07:05:11.800Z,92.90
2019-01-24T07:07:39.495Z,92.80
2019-01-24T07:10:10.171Z,92.70
2019-01-24T07:12:37.870Z,92.50
2019-01-24T07:15:07.450Z,92.50
2019-01-24T07:17:35.166Z,92.40
2019-01-24T07:20:03.778Z,92.30
2019-01-24T07:22:31.641Z,92.00
2019-01-24T07:24:59.352Z,92.00
2019-01-24T07:27:27.060Z,92.10
2019-01-24T07:29:54.763Z,92.30
2019-01-24T07:32:22.488Z,92.20
2019-01-24T07:34:50.185Z,91.90
2019-01-24T07:37:17.885Z,91.70
2019-01-24T07:39:45.617Z,91.40
2019-01-24T07:42:13.312Z,91.30
2019-01-24T07:44:41.037Z,91.20
2019-01-24T07:47:08.739Z,91.20
2019-01-24T07:49:36.538Z,91.20
2019-01-24T07:52:04.575Z,91.10
2019-01-24T07:54:32.316Z,90.80
2019-01-24T07:57:00.049Z,90.60
2019-01-24T07:59:27.769Z,90.70
2019-01-24T08:01:55.485Z,90.70
2019-01-24T08:04:23.221Z,90.70
2019-01-24T08:06:50.963Z,90.40
2019-01-24T08:09:18.686Z,90.30
2019-01-24T08:11:46.409Z,90.10
2019-01-24T08:14:14.181Z,89.50
2019-01-24T08:16:41.885Z,89.30
2019-01-24T08:19:09.649Z,89.40
2019-01-24T08:21:37.449Z,89.20
2019-01-24T08:24:08.046Z,88.90
2019-01-24T08:26:35.916Z,89.10
2019-01-24T08:29:03.625Z,88.80
2019-01-24T08:31:31.358Z,89.20
2019-01-24T08:33:59.085Z,88.80
2019-01-24T08:36:26.737Z,88.70
2019-01-24T08:38:54.472Z,88.10
2019-01-24T08:41:22.165Z,87.80
2019-01-24T08:43:49.922Z,87.50
2019-01-24T08:46:17.653Z,87.20
2019-01-24T08:48:45.409Z,86.90
2019-01-24T08:51:13.138Z,86.30
2019-01-24T08:53:40.859Z,85.70
2019-01-24T08:56:08.629Z,86.00
2019-01-24T08:58:39.209Z,85.30
2019-01-24T09:01:06.941Z,85.00
2019-01-24T09:03:34.753Z,84.40
2019-01-24T09:06:02.486Z,83.70
2019-01-24T09:08:30.210Z,84.20
2019-01-24T09:10:57.953Z,83.70
2019-01-24T09:13:25.729Z,83.30
2019-01-24T09:15:53.410Z,83.00
2019-01-24T09:18:21.141Z,82.60
2019-01-24T09:20:49.127Z,82.40
2019-01-24T09:23:16.849Z,81.70
2019-01-24T09:25:44.554Z,81.20
2019-01-24T09:28:14.933Z,81.70
2019-01-24T09:30:41.794Z,81.20
2019-01-24T09:33:09.622Z,81.90
2019-01-24T09:35:37.383Z,81.20
2019-01-24T09:38:05.127Z,80.00
2019-01-24T09:40:32.865Z,80.50
2019-01-24T09:43:00.592Z,80.90
2019-01-24T09:45:28.818Z,80.50
2019-01-24T09:47:58.393Z,81.30
2019-01-24T09:50:26.126Z,80.30
2019-01-24T09:52:53.866Z,80.00
2019-01-24T09:55:21.589Z,80.20
2019-01-24T09:57:49.229Z,80.50
2019-01-24T10:00:19.185Z,79.40
2019-01-24T10:02:46.919Z,80.30
2019-01-24T10:05:14.673Z,80.50
2019-01-24T10:07:42.577Z,80.10
2019-01-24T10:10:12.978Z,80.30
2019-01-24T10:12:40.707Z,80.20
2019-01-24T10:15:09.093Z,80.00
2019-01-24T10:17:36.817Z,80.10
2019-01-24T10:20:06.121Z,82.40
2019-01-24T10:22:33.935Z,84.70
2019-01-24T10:25:01.641Z,85.80
2019-01-24T10:27:29.561Z,85.80
2019-01-24T10:29:57.265Z,86.10
2019-01-24T10:32:24.969Z,86.70
2019-01-24T10:34:52.705Z,86.50
2019-01-24T10:37:20.408Z,86.80
2019-01-24T10:39:48.134Z,86.40
2019-01-24T10:42:15.876Z,87.10
2019-01-24T10:44:43.617Z,87.20
2019-01-24T10:47:11.322Z,87.80
2019-01-24T10:49:39.029Z,87.50
2019-01-24T10:52:06.745Z,87.00
2019-01-24T10:54:34.465Z,86.70
2019-01-24T10:57:06.570Z,86.80
2019-01-24T10:59:34.253Z,85.80
2019-01-24T11:02:02.929Z,84.10
2019-01-24T11:04:30.702Z,84.30
2019-01-24T11:06:58.421Z,84.50
2019-01-24T11:11:53.426Z,83.80
2019-01-24T11:14:21.155Z,82.60
2019-01-24T11:16:48.857Z,82.30
2019-01-24T11:19:16.570Z,81.50
2019-01-24T11:21:44.433Z,81.30
2019-01-24T11:24:12.201Z,80.80
2019-01-24T11:26:39.965Z,80.70
2019-01-24T11:29:07.673Z,80.20
2019-01-24T11:31:35.379Z,80.00
2019-01-24T11:34:03.086Z,80.20
2019-01-24T11:36:30.780Z,80.00
2019-01-24T11:38:58.542Z,80.60
2019-01-24T11:41:26.253Z,80.20
2019-01-24T11:43:53.949Z,79.50
2019-01-24T11:46:21.673Z,78.70
2019-01-24T11:48:49.377Z,79.20
2019-01-24T11:51:17.149Z,79.70
2019-01-24T11:53:45.167Z,79.10
2019-01-24T11:56:12.838Z,79.10
2019-01-24T11:58:40.552Z,78.00
2019-01-24T12:01:08.272Z,78.30
2019-01-24T12:03:36.033Z,78.30
2019-01-24T12:06:03.901Z,78.10
2019-01-24T12:08:31.632Z,78.30
2019-01-24T12:10:59.321Z,77.90
2019-01-24T12:13:27.042Z,77.80
2019-01-24T12:15:54.754Z,76.80
2019-01-24T12:18:22.449Z,76.60
2019-01-24T12:20:50.177Z,77.50
2019-01-24T12:23:17.894Z,77.40
2019-01-24T12:25:45.668Z,77.60
2019-01-24T12:28:13.369Z,75.70
2019-01-24T12:30:41.060Z,75.40
2019-01-24T12:33:08.784Z,75.00
2019-01-24T12:35:36.585Z,73.80
2019-01-24T12:38:04.754Z,73.40
2019-01-24T12:40:32.454Z,72.90
2019-01-24T12:43:00.149Z,73.90
2019-01-24T12:45:30.031Z,73.60
2019-01-24T12:47:57.756Z,73.20
2019-01-24T12:50:25.557Z,74.40
2019-01-24T12:52:53.261Z,73.20
2019-01-24T12:55:21.001Z,73.00
2019-01-24T12:57:48.717Z,73.70
2019-01-24T13:00:21.508Z,74.30
2019-01-24T13:02:49.236Z,74.30
2019-01-24T13:05:16.939Z,74.50
2019-01-24T13:07:44.677Z,73.60
2019-01-24T13:10:14.750Z,73.10
2019-01-24T13:12:42.449Z,73.40
2019-01-24T13:15:10.261Z,73.80
2019-01-24T13:17:37.963Z,73.60
2019-01-24T13:20:07.664Z,74.30
2019-01-24T13:22:35.388Z,73.40
2019-01-24T13:25:03.267Z,73.80
2019-01-24T13:27:30.970Z,73.90
2019-01-24T13:29:58.684Z,73.60
2019-01-24T13:32:26.402Z,73.40
2019-01-24T13:34:54.097Z,74.10
2019-01-24T13:37:25.768Z,75.50
2019-01-24T13:39:51.326Z,75.20
2019-01-24T13:42:19.026Z,74.90
2019-01-24T13:44:46.772Z,76.10
2019-01-24T13:47:14.466Z,75.80
2019-01-24T13:49:42.182Z,75.30
2019-01-24T13:52:09.887Z,75.30
2019-01-24T13:54:44.367Z,74.40
2019-01-24T13:57:12.153Z,74.30
2019-01-24T13:59:39.849Z,74.10
2019-01-24T14:02:07.598Z,74.20
2019-01-24T14:04:42.621Z,73.80
2019-01-24T14:07:10.385Z,73.00
2019-01-24T14:09:38.106Z,74.00
2019-01-24T14:12:05.856Z,74.70
2019-01-24T14:14:33.558Z,74.60
2019-01-24T14:17:01.281Z,73.20
2019-01-24T14:19:29.009Z,73.40
2019-01-24T14:21:56.796Z,73.10
2019-01-24T14:24:24.563Z,74.10
2019-01-24T14:26:52.321Z,74.60
2019-01-24T14:29:19.936Z,74.70
2019-01-24T14:34:14.898Z,73.60
2019-01-24T14:36:42.803Z,73.10
2019-01-24T14:39:10.571Z,73.50
2019-01-24T14:41:38.314Z,72.90
2019-01-24T14:44:06.035Z,72.70
2019-01-24T14:46:33.733Z,72.30
2019-01-24T14:49:01.457Z,72.60
2019-01-24T14:51:29.169Z,72.50
2019-01-24T14:53:57.043Z,73.60
2019-01-24T14:56:24.778Z,73.10
2019-01-24T14:58:52.479Z,74.30
2019-01-24T15:01:23.261Z,75.20
2019-01-24T15:03:50.953Z,73.90
2019-01-24T15:06:19.017Z,73.50
2019-01-24T15:08:46.742Z,74.20
2019-01-24T15:11:14.694Z,75.10
2019-01-24T15:13:42.374Z,75.40
2019-01-24T15:16:10.079Z,77.00
2019-01-24T15:18:38.112Z,76.60
2019-01-24T15:21:05.825Z,76.40
2019-01-24T15:23:33.565Z,76.10
2019-01-24T15:26:01.288Z,76.20
2019-01-24T15:28:28.998Z,75.70
2019-01-24T15:30:56.721Z,75.10
2019-01-24T15:33:24.429Z,75.10
2019-01-24T15:35:52.188Z,75.40
2019-01-24T15:38:20.061Z,75.20
2019-01-24T15:40:47.716Z,75.60
2019-01-24T15:43:15.441Z,76.60
2019-01-24T15:45:43.158Z,77.60
2019-01-24T15:48:10.952Z,77.00
2019-01-24T15:50:38.638Z,77.30
2019-01-24T15:53:06.369Z,77.30
2019-01-24T15:55:34.121Z,77.20
2019-01-24T15:58:01.850Z,76.60
2019-01-24T16:00:30.722Z,76.90
2019-01-24T16:02:58.432Z,77.40
2019-01-24T16:05:26.218Z,78.00
2019-01-24T16:07:53.863Z,76.00
2019-01-24T16:10:21.616Z,75.70
2019-01-24T16:12:49.325Z,76.00
2019-01-24T16:15:19.680Z,76.30
2019-01-24T16:17:47.418Z,76.30
2019-01-24T16:20:17.058Z,75.90
2019-01-24T16:22:44.785Z,76.20
2019-01-24T16:25:13.165Z,76.90
2019-01-24T16:27:41.018Z,77.30
2019-01-24T16:30:11.891Z,76.70
2019-01-24T16:32:39.626Z,77.60
2019-01-24T16:35:08.178Z,78.60
2019-01-24T16:37:35.868Z,78.90
2019-01-24T16:40:04.394Z,78.80
2019-01-24T16:42:32.111Z,79.20
2019-01-24T16:44:59.814Z,80.10
2019-01-24T16:47:27.653Z,80.60
2019-01-24T16:49:55.345Z,82.20
2019-01-24T16:52:23.101Z,81.50
2019-01-24T16:54:50.820Z,82.00
2019-01-24T16:57:18.609Z,82.00
2019-01-24T16:59:46.329Z,82.10
2019-01-24T17:02:14.020Z,82.10
2019-01-24T17:07:09.005Z,83.40
2019-01-24T17:09:36.643Z,84.10
2019-01-24T17:12:04.417Z,84.90
2019-01-24T17:14:32.165Z,85.20
2019-01-24T17:16:59.934Z,86.10
2019-01-24T17:19:27.683Z,86.30
2019-01-24T17:21:55.537Z,86.80
2019-01-24T17:24:23.256Z,87.40
2019-01-24T17:26:51.005Z,87.30
2019-01-24T17:29:18.993Z,87.60
2019-01-24T17:31:46.723Z,87.50
2019-01-24T17:34:14.441Z,87.60
2019-01-24T17:36:42.145Z,88.00
2019-01-24T17:39:11.260Z,88.50
2019-01-24T17:41:38.989Z,88.80
2019-01-24T17:44:06.726Z,88.70
2019-01-24T17:46:34.420Z,88.80
2019-01-24T17:49:02.153Z,88.50
2019-01-24T17:51:29.857Z,87.80
2019-01-24T17:53:57.565Z,87.50
2019-01-24T17:56:25.337Z,87.80
2019-01-24T17:58:53.113Z,88.00
2019-01-24T18:01:20.806Z,88.30
2019-01-24T18:03:48.522Z,88.40
2019-01-24T18:06:16.250Z,88.30
2019-01-24T18:08:43.958Z,88.20
2019-01-24T18:11:11.688Z,88.90
2019-01-24T18:13:39.401Z,87.70
2019-01-24T18:16:07.104Z,87.70
2019-01-24T18:18:34.818Z,87.60
2019-01-24T18:21:02.552Z,87.40
2019-01-24T18:23:30.243Z,87.80
2019-01-24T18:25:58.028Z,87.60
2019-01-24T18:28:25.833Z,87.30
2019-01-24T18:30:53.589Z,87.30
2019-01-24T18:33:21.300Z,87.70
2019-01-24T18:35:48.988Z,87.60
2019-01-24T18:38:16.735Z,87.00
2019-01-24T18:40:44.437Z,86.60
2019-01-24T18:43:20.952Z,87.10
2019-01-24T18:45:49.185Z,86.70
2019-01-24T18:48:16.890Z,86.90
2019-01-24T18:50:44.698Z,87.30
2019-01-24T18:53:12.398Z,87.60
2019-01-24T18:55:40.101Z,86.70
2019-01-24T18:58:07.850Z,86.30
2019-01-24T19:00:38.003Z,86.50
2019-01-24T19:03:06.682Z,86.40
2019-01-24T19:05:34.397Z,86.50
2019-01-24T19:08:02.113Z,87.00
2019-01-24T19:10:29.852Z,86.90
2019-01-24T19:12:57.887Z,87.60
2019-01-24T19:15:25.625Z,86.40
2019-01-24T19:17:53.342Z,86.40
2019-01-24T19:20:21.062Z,86.00
2019-01-24T19:22:48.765Z,85.80
2019-01-24T19:25:17.110Z,86.10
2019-01-24T19:27:44.953Z,86.10
2019-01-24T19:30:31.099Z,86.20
2019-01-24T19:32:58.909Z,86.40
2019-01-24T19:35:26.648Z,86.70
2019-01-24T19:37:54.387Z,86.60
2019-01-24T19:40:22.563Z,87.00
2019-01-24T19:42:50.297Z,87.60
2019-01-24T19:45:19.493Z,87.70
2019-01-24T19:47:47.222Z,87.20
2019-01-24T19:50:19.734Z,86.80
2019-01-24T19:52:47.476Z,86.10
2019-01-24T19:55:15.202Z,86.60
2019-01-24T19:57:42.910Z,86.90
2019-01-24T20:00:13.649Z,87.30
2019-01-24T20:02:41.346Z,86.90
2019-01-24T20:05:09.968Z,87.70
2019-01-24T20:07:37.713Z,87.10
2019-01-24T20:10:07.137Z,87.80
2019-01-24T20:12:34.871Z,88.30
2019-01-24T20:15:02.578Z,87.60
2019-01-24T20:17:30.385Z,88.20
2019-01-24T20:19:58.114Z,88.50
2019-01-24T20:22:25.850Z,88.80
2019-01-24T20:24:53.562Z,89.10
2019-01-24T20:27:21.305Z,89.10
2019-01-24T20:29:49.037Z,89.40
2019-01-24T20:32:16.739Z,90.00
2019-01-24T20:34:44.425Z,90.30
2019-01-24T20:37:12.144Z,90.30
2019-01-24T20:39:39.841Z,90.30
2019-01-24T20:42:07.564Z,90.50
2019-01-24T20:44:35.268Z,90.30
2019-01-24T20:47:03.082Z,90.20
2019-01-24T20:51:58.041Z,90.20
2019-01-24T20:54:25.758Z,90.30
2019-01-24T20:56:53.469Z,90.40
2019-01-24T20:59:21.237Z,90.20
2019-01-24T21:01:48.922Z,90.00
2019-01-24T21:04:16.757Z,90.00
2019-01-24T21:06:44.454Z,89.80
2019-01-24T21:09:14.891Z,89.70
2019-01-24T21:11:41.891Z,89.60
2019-01-24T21:14:09.584Z,89.10
2019-01-24T21:16:37.365Z,89.10
2019-01-24T21:19:05.150Z,88.60
2019-01-24T21:21:32.911Z,89.10
2019-01-24T21:24:00.613Z,89.00
2019-01-24T21:26:28.379Z,89.10
2019-01-24T21:28:56.178Z,89.60
2019-01-24T21:31:23.866Z,87.60
2019-01-24T21:33:51.642Z,88.30
2019-01-24T21:36:19.357Z,89.10
2019-01-24T21:38:47.092Z,89.40
2019-01-24T21:41:14.793Z,89.70
2019-01-24T21:43:42.497Z,90.10
2019-01-24T21:46:10.213Z,90.20
2019-01-24T21:48:37.913Z,90.40
2019-01-24T21:51:11.079Z,90.40
2019-01-24T21:53:35.366Z,90.20
2019-01-24T21:56:03.049Z,90.30
2019-01-24T21:58:30.758Z,90.30
2019-01-24T22:00:58.500Z,90.50
2019-01-24T22:03:27.803Z,90.70
2019-01-24T22:05:55.537Z,90.70
2019-01-24T22:08:23.258Z,90.60
2019-01-24T22:10:50.951Z,90.70
2019-01-24T22:13:18.664Z,90.70
2019-01-24T22:15:46.371Z,90.60
2019-01-24T22:18:14.057Z,90.70
2019-01-24T22:20:41.790Z,90.90
2019-01-24T22:23:09.485Z,91.20
2019-01-24T22:25:37.258Z,91.50
2019-01-24T22:28:05.644Z,91.60
2019-01-24T22:30:39.248Z,91.70
2019-01-24T22:33:07.045Z,91.70
2019-01-24T22:35:34.770Z,92.40
2019-01-24T22:38:02.582Z,92.10
2019-01-24T22:40:30.277Z,92.20
2019-01-24T22:42:58.001Z,92.30
2019-01-24T22:45:25.698Z,92.40
2019-01-24T22:47:53.421Z,92.50
2019-01-24T22:50:21.132Z,92.50
2019-01-24T22:52:48.833Z,92.60
2019-01-24T22:55:16.568Z,92.80
2019-01-24T22:57:44.269Z,92.60
2019-01-24T23:00:54.750Z,92.70
2019-01-24T23:03:29.053Z,92.50
2019-01-24T23:05:56.771Z,92.60
2019-01-24T23:08:24.472Z,92.70
2019-01-24T23:10:52.171Z,92.50
2019-01-24T23:13:19.893Z,92.50
2019-01-24T23:15:47.593Z,92.80
2019-01-24T23:18:15.325Z,92.70
2019-01-24T23:20:43.023Z,92.70
2019-01-24T23:23:10.746Z,92.60
2019-01-24T23:25:38.424Z,92.70
2019-01-24T23:28:06.138Z,92.90
2019-01-24T23:30:34.077Z,93.20
2019-01-24T23:33:01.777Z,93.00
2019-01-24T23:35:29.504Z,93.00
2019-01-24T23:37:57.241Z,93.10
2019-01-24T23:40:24.977Z,92.90
2019-01-24T23:42:52.669Z,92.90
2019-01-24T23:45:20.433Z,92.80
2019-01-24T23:47:48.100Z,92.80
2019-01-24T23:50:15.793Z,92.90
2019-01-24T23:52:43.513Z,93.00
2019-01-24T23:55:12.137Z,92.90
2019-01-24T23:57:39.861Z,92.80
